Time;durP1;ratioP1;P1;durP2;ratioP2;P2;SDS_P1;SDS_P2;PMS_P1;PMS_P2;Temp;Humidity;BMP_temperature;BMP_pressure;BME280_temperature;BME280_humidity;BME280_pressure;Samples;Min_cycle;Max_cycle;Signal;HPM_P1;HPM_P2
2022/12/05 00:00:51;;;;;;;28.15;15.15;;;;;;;;;;5024706;28;20048;-75
2022/12/05 00:03:17;;;;;;;17.40;13.65;;;;;;;;;;5026171;28;20506;-75
2022/12/05 00:05:46;;;;;;;20.13;13.10;;;;;;;;;;5024668;28;20030;-76
2022/12/05 00:08:20;;;;;;;23.00;16.98;;;;;;;;;;5024122;28;20483;-75
2022/12/05 00:10:45;;;;;;;29.27;17.70;;;;;;;;;;4990971;28;20029;-75
2022/12/05 00:13:11;;;;;;;25.77;15.00;;;;;;;;;;5022823;28;20373;-75
2022/12/05 00:15:40;;;;;;;32.97;16.33;;;;;;;;;;5007676;28;20044;-75
2022/12/05 00:18:07;;;;;;;23.75;16.90;;;;;;;;;;5022626;28;20037;-75
2022/12/05 00:20:35;;;;;;;25.48;16.63;;;;;;;;;;5024852;28;20034;-75
2022/12/05 00:23:05;;;;;;;27.63;18.65;;;;;;;;;;5020967;28;20037;-75
2022/12/05 00:25:34;;;;;;;27.95;18.77;;;;;;;;;;5020729;28;20887;-75
2022/12/05 00:28:05;;;;;;;32.78;21.35;;;;;;;;;;5020494;28;20037;-75
2022/12/05 00:30:34;;;;;;;37.88;22.13;;;;;;;;;;5019287;28;20037;-76
2022/12/05 00:32:59;;;;;;;32.72;20.73;;;;;;;;;;5021847;28;20030;-76
2022/12/05 00:35:30;;;;;;;28.55;20.35;;;;;;;;;;5026132;28;20430;-76
2022/12/05 00:37:56;;;;;;;36.60;20.98;;;;;;;;;;5022883;28;20036;-76
2022/12/05 00:40:24;;;;;;;27.75;21.42;;;;;;;;;;5024133;28;20056;-76
2022/12/05 00:42:55;;;;;;;30.23;22.08;;;;;;;;;;5041582;28;20025;-76
2022/12/05 00:45:21;;;;;;;31.70;18.92;;;;;;;;;;5026882;28;20545;-76
2022/12/05 00:47:49;;;;;;;47.40;22.70;;;;;;;;;;5021350;28;20524;-76
2022/12/05 00:50:15;;;;;;;29.35;19.08;;;;;;;;;;5025379;28;20032;-76
2022/12/05 00:52:48;;;;;;;26.63;19.73;;;;;;;;;;5021893;28;20383;-76
2022/12/05 00:55:14;;;;;;;34.55;23.35;;;;;;;;;;5024485;28;20048;-76
2022/12/05 00:57:42;;;;;;;32.45;19.73;;;;;;;;;;5023568;28;20029;-76
2022/12/05 01:00:12;;;;;;;26.88;19.13;;;;;;;;;;5039721;23;20065;-72
2022/12/05 01:02:38;;;;;;;32.78;19.42;;;;;;;;;;5013674;28;20061;-72
2022/12/05 01:05:06;;;;;;;40.20;19.45;;;;;;;;;;5024789;28;20352;-72
2022/12/05 01:07:32;;;;;;;30.63;19.70;;;;;;;;;;5023054;28;20030;-73
2022/12/05 01:10:00;;;;;;;33.65;19.60;;;;;;;;;;5022609;28;20026;-72
2022/12/05 01:12:27;;;;;;;25.25;19.05;;;;;;;;;;5002807;28;20030;-72
2022/12/05 01:14:55;;;;;;;26.02;18.52;;;;;;;;;;5006806;28;20046;-72
2022/12/05 01:17:23;;;;;;;40.90;22.77;;;;;;;;;;5019510;28;20052;-71
2022/12/05 01:19:51;;;;;;;38.42;20.20;;;;;;;;;;4986914;28;20033;-71
2022/12/05 01:22:17;;;;;;;37.92;20.55;;;;;;;;;;5005922;28;20049;-71
2022/12/05 01:24:44;;;;;;;27.80;19.85;;;;;;;;;;5017467;28;20033;-72
2022/12/05 01:27:12;;;;;;;28.90;20.33;;;;;;;;;;5007067;28;20025;-71
2022/12/05 01:29:38;;;;;;;35.08;21.52;;;;;;;;;;4985519;28;20038;-71
2022/12/05 01:32:04;;;;;;;29.52;19.95;;;;;;;;;;5020405;28;20034;-71
2022/12/05 01:34:30;;;;;;;34.45;21.38;;;;;;;;;;5003560;28;20038;-72
2022/12/05 01:36:55;;;;;;;34.22;22.05;;;;;;;;;;5005918;28;20038;-71
2022/12/05 01:39:24;;;;;;;29.38;19.77;;;;;;;;;;5018456;28;20042;-71
2022/12/05 01:41:49;;;;;;;30.70;20.63;;;;;;;;;;5004443;28;20037;-71
2022/12/05 01:44:17;;;;;;;31.15;20.85;;;;;;;;;;5006552;28;20038;-72
2022/12/05 01:46:48;;;;;;;28.50;20.15;;;;;;;;;;5003928;28;20030;-73
2022/12/05 01:49:26;;;;;;;36.42;20.63;;;;;;;;;;4965805;28;20057;-71
2022/12/05 01:51:57;;;;;;;29.20;19.92;;;;;;;;;;5005358;28;20048;-71
2022/12/05 01:54:25;;;;;;;34.55;20.17;;;;;;;;;;5003703;28;20025;-71
2022/12/05 01:56:56;;;;;;;38.65;20.05;;;;;;;;;;5003788;28;20037;-71
2022/12/05 01:59:25;;;;;;;33.60;20.05;;;;;;;;;;5000252;28;20060;-71
2022/12/05 02:01:54;;;;;;;36.42;21.13;;;;;;;;;;5006432;28;20055;-72
2022/12/05 02:04:20;;;;;;;32.38;23.38;;;;;;;;;;5007998;28;20060;-72
2022/12/05 02:06:48;;;;;;;40.85;23.83;;;;;;;;;;5009629;28;20033;-72
2022/12/05 02:09:14;;;;;;;34.75;20.73;;;;;;;;;;5008353;28;20026;-72
2022/12/05 02:11:55;;;;;;;39.63;26.33;;;;;;;;;;5007388;28;20030;-70
2022/12/05 02:14:20;;;;;;;33.60;22.63;;;;;;;;;;5004319;28;20038;-71
2022/12/05 02:16:50;;;;;;;46.63;26.73;;;;;;;;;;5020326;28;20455;-71
2022/12/05 02:19:35;;;;;;;33.13;21.23;;;;;;;;;;5004075;28;20041;-71
2022/12/05 02:22:17;;;;;;;39.05;25.98;;;;;;;;;;5009017;28;20037;-71
2022/12/05 02:24:49;;;;;;;35.45;26.33;;;;;;;;;;5009882;28;20022;-72
2022/12/05 02:27:38;;;;;;;40.35;26.73;;;;;;;;;;5009475;28;20480;-72
2022/12/05 02:30:08;;;;;;;43.55;25.70;;;;;;;;;;5003651;28;20969;-72
2022/12/05 02:32:45;;;;;;;42.03;25.10;;;;;;;;;;5007631;28;20037;-72
2022/12/05 02:35:40;;;;;;;40.15;27.23;;;;;;;;;;5008661;28;20045;-72
2022/12/05 02:38:25;;;;;;;45.50;26.25;;;;;;;;;;4990552;28;20037;-72
2022/12/05 02:40:57;;;;;;;49.45;24.77;;;;;;;;;;5006362;28;20523;-71
2022/12/05 02:43:30;;;;;;;44.55;28.73;;;;;;;;;;5009851;28;20029;-71
2022/12/05 02:46:00;;;;;;;45.90;28.92;;;;;;;;;;5020917;28;20420;-71
2022/12/05 02:48:29;;;;;;;39.47;23.60;;;;;;;;;;5021435;28;20022;-71
2022/12/05 02:50:59;;;;;;;32.33;25.13;;;;;;;;;;5002399;28;20527;-71
2022/12/05 02:53:26;;;;;;;43.55;24.02;;;;;;;;;;5006531;28;20033;-71
2022/12/05 02:55:54;;;;;;;46.42;27.17;;;;;;;;;;5007074;28;20042;-71
2022/12/05 02:58:23;;;;;;;32.88;22.67;;;;;;;;;;5020424;28;20102;-72
2022/12/05 03:00:49;;;;;;;38.92;22.90;;;;;;;;;;5021341;28;20029;-71
2022/12/05 03:03:21;;;;;;;39.80;23.63;;;;;;;;;;5003987;28;20026;-71
2022/12/05 03:06:21;;;;;;;35.88;22.25;;;;;;;;;;5005154;28;20028;-71
2022/12/05 03:08:52;;;;;;;35.03;19.80;;;;;;;;;;4980667;28;20535;-71
2022/12/05 03:11:21;;;;;;;33.38;21.60;;;;;;;;;;5008512;28;20033;-71
2022/12/05 03:13:51;;;;;;;36.17;23.75;;;;;;;;;;5008334;28;20048;-71
2022/12/05 03:16:22;;;;;;;34.05;23.17;;;;;;;;;;5004711;28;21015;-71
2022/12/05 03:18:56;;;;;;;34.33;21.40;;;;;;;;;;5006937;28;20033;-71
2022/12/05 03:22:00;;;;;;;42.13;23.17;;;;;;;;;;5025218;28;20045;-71
2022/12/05 03:24:26;;;;;;;46.75;24.27;;;;;;;;;;4963388;28;20062;-71
2022/12/05 03:27:11;;;;;;;30.02;20.75;;;;;;;;;;5000375;28;20042;-71
2022/12/05 03:29:36;;;;;;;34.08;21.42;;;;;;;;;;5004024;28;20029;-71
2022/12/05 03:32:05;;;;;;;37.33;21.05;;;;;;;;;;5008531;28;20033;-71
2022/12/05 03:34:33;;;;;;;33.03;21.15;;;;;;;;;;5004223;28;20045;-71
2022/12/05 03:37:01;;;;;;;31.75;24.85;;;;;;;;;;5005803;28;20090;-71
2022/12/05 03:39:31;;;;;;;27.23;20.80;;;;;;;;;;5010915;28;20030;-71
2022/12/05 03:42:00;;;;;;;38.03;23.83;;;;;;;;;;5005908;28;20042;-72
2022/12/05 03:44:30;;;;;;;30.17;19.92;;;;;;;;;;5011107;28;20037;-71
2022/12/05 03:47:02;;;;;;;37.13;23.90;;;;;;;;;;5008211;28;20484;-71
2022/12/05 03:49:33;;;;;;;32.90;21.58;;;;;;;;;;5010783;28;20041;-71
2022/12/05 03:52:12;;;;;;;33.97;20.58;;;;;;;;;;5023033;28;20029;-72
2022/12/05 03:54:41;;;;;;;24.27;16.98;;;;;;;;;;5009688;28;20041;-71
2022/12/05 03:57:12;;;;;;;33.05;19.45;;;;;;;;;;5006312;28;20040;-72
2022/12/05 03:59:44;;;;;;;35.47;21.20;;;;;;;;;;5007234;28;20041;-71
2022/12/05 04:02:19;;;;;;;24.48;17.65;;;;;;;;;;5008717;28;20049;-71
2022/12/05 04:05:08;;;;;;;28.60;19.25;;;;;;;;;;5006145;28;20034;-71
2022/12/05 04:07:36;;;;;;;30.33;20.92;;;;;;;;;;5006889;28;20037;-71
2022/12/05 04:10:05;;;;;;;26.40;17.92;;;;;;;;;;5007394;28;20026;-71
2022/12/05 04:12:33;;;;;;;21.35;17.50;;;;;;;;;;5008200;28;20034;-71
2022/12/05 04:15:00;;;;;;;27.75;18.42;;;;;;;;;;5009282;28;20104;-71
2022/12/05 04:17:42;;;;;;;29.50;16.90;;;;;;;;;;5007993;28;20030;-71
2022/12/05 04:23:05;;;;;;;28.83;19.20;;;;;;;;;;5006005;28;20040;-71
2022/12/05 04:25:51;;;;;;;23.80;16.42;;;;;;;;;;5008594;28;20049;-72
2022/12/05 04:28:17;;;;;;;;;;;;;;;;;;5007973;28;20057;-71
2022/12/05 04:30:46;;;;;;;24.65;15.93;;;;;;;;;;5008430;28;20350;-72
2022/12/05 04:33:30;;;;;;;20.45;17.05;;;;;;;;;;5008148;28;20034;-72
2022/12/05 04:36:06;;;;;;;26.60;16.60;;;;;;;;;;5003364;28;20033;-72
2022/12/05 04:38:43;;;;;;;16.88;14.32;;;;;;;;;;5007763;28;20041;-72
2022/12/05 04:41:15;;;;;;;19.58;16.13;;;;;;;;;;5006586;28;20033;-71
2022/12/05 04:43:44;;;;;;;28.45;16.10;;;;;;;;;;5006198;28;20030;-71
2022/12/05 04:46:12;;;;;;;27.52;18.98;;;;;;;;;;5007015;28;20496;-71
2022/12/05 04:48:43;;;;;;;21.45;15.70;;;;;;;;;;5006144;28;20029;-71
2022/12/05 04:51:14;;;;;;;25.83;16.98;;;;;;;;;;5002580;28;20034;-71
2022/12/05 04:53:44;;;;;;;18.80;16.63;;;;;;;;;;5007262;28;20496;-72
2022/12/05 04:56:10;;;;;;;31.65;16.35;;;;;;;;;;5004701;28;20049;-71
2022/12/05 04:58:39;;;;;;;32.42;16.80;;;;;;;;;;5006603;28;21291;-72
2022/12/05 05:01:11;;;;;;;28.25;17.73;;;;;;;;;;5007079;28;20026;-70
2022/12/05 05:03:36;;;;;;;26.98;19.27;;;;;;;;;;5002109;28;20033;-72
2022/12/05 05:06:02;;;;;;;24.35;15.50;;;;;;;;;;5002982;28;21337;-72
2022/12/05 05:08:28;;;;;;;25.70;16.33;;;;;;;;;;5005901;28;20491;-72
2022/12/05 05:11:04;;;;;;;27.80;18.58;;;;;;;;;;5007320;28;20038;-72
2022/12/05 05:13:35;;;;;;;25.30;16.77;;;;;;;;;;5006645;28;20484;-72
2022/12/05 05:16:01;;;;;;;30.70;21.00;;;;;;;;;;5003999;28;20034;-73
2022/12/05 05:18:29;;;;;;;29.77;19.98;;;;;;;;;;5006318;28;20025;-72
2022/12/05 05:20:54;;;;;;;32.28;20.45;;;;;;;;;;5006779;28;20038;-72
2022/12/05 05:23:23;;;;;;;28.75;17.95;;;;;;;;;;5010670;28;20034;-72
2022/12/05 05:25:55;;;;;;;28.25;19.83;;;;;;;;;;5008306;28;20123;-71
2022/12/05 05:28:23;;;;;;;22.98;20.08;;;;;;;;;;5008036;28;20041;-71
2022/12/05 05:30:54;;;;;;;29.20;17.95;;;;;;;;;;5008097;28;20037;-71
2022/12/05 05:33:20;;;;;;;23.05;17.30;;;;;;;;;;5001311;28;20033;-71
2022/12/05 05:35:48;;;;;;;24.95;20.45;;;;;;;;;;4996251;28;20041;-71
2022/12/05 05:38:14;;;;;;;32.67;18.35;;;;;;;;;;5002719;28;20442;-71
2022/12/05 05:40:40;;;;;;;30.33;19.55;;;;;;;;;;4995184;28;22784;-72
2022/12/05 05:43:13;;;;;;;23.88;16.88;;;;;;;;;;4995301;28;20038;-71
2022/12/05 05:45:39;;;;;;;31.95;19.40;;;;;;;;;;4992745;28;20029;-71
2022/12/05 05:48:07;;;;;;;27.00;17.70;;;;;;;;;;4991969;28;20129;-72
2022/12/05 05:50:33;;;;;;;32.72;18.75;;;;;;;;;;5000284;28;20034;-72
2022/12/05 05:52:59;;;;;;;30.35;20.33;;;;;;;;;;4992644;28;20116;-71
2022/12/05 05:55:27;;;;;;;33.47;19.45;;;;;;;;;;4999627;28;20185;-71
2022/12/05 05:57:53;;;;;;;38.83;21.20;;;;;;;;;;4996954;28;20042;-71
2022/12/05 06:00:21;;;;;;;25.85;16.75;;;;;;;;;;4997705;28;20045;-72
2022/12/05 06:02:49;;;;;;;31.95;18.98;;;;;;;;;;4998158;28;20132;-72
2022/12/05 06:05:20;;;;;;;29.42;20.80;;;;;;;;;;5008803;28;20664;-72
2022/12/05 06:07:48;;;;;;;29.80;18.35;;;;;;;;;;4998155;28;20369;-72
2022/12/05 06:10:14;;;;;;;35.85;19.50;;;;;;;;;;4994738;28;20022;-72
2022/12/05 06:12:40;;;;;;;44.58;23.75;;;;;;;;;;5000490;28;20065;-72
2022/12/05 06:15:09;;;;;;;32.38;20.30;;;;;;;;;;4996293;28;20039;-72
2022/12/05 06:17:35;;;;;;;37.28;25.38;;;;;;;;;;4979797;28;20041;-72
2022/12/05 06:20:01;;;;;;;43.67;23.08;;;;;;;;;;5005499;28;20487;-72
2022/12/05 06:22:34;;;;;;;29.65;20.10;;;;;;;;;;5008192;28;20026;-71
2022/12/05 06:25:00;;;;;;;36.63;20.42;;;;;;;;;;5007749;28;20034;-72
2022/12/05 06:27:28;;;;;;;38.55;21.17;;;;;;;;;;5008350;28;20026;-71
2022/12/05 06:29:54;;;;;;;31.95;23.70;;;;;;;;;;5006964;28;20675;-72
2022/12/05 06:32:19;;;;;;;35.90;20.98;;;;;;;;;;5008073;28;20053;-72
2022/12/05 06:34:48;;;;;;;38.75;22.67;;;;;;;;;;5000718;28;20053;-71
2022/12/05 06:37:17;;;;;;;44.28;26.55;;;;;;;;;;4995734;28;20042;-72
2022/12/05 06:39:45;;;;;;;36.92;21.60;;;;;;;;;;4995901;28;20037;-72
2022/12/05 06:42:11;;;;;;;44.58;24.85;;;;;;;;;;5008545;28;20038;-72
2022/12/05 06:44:42;;;;;;;40.65;27.27;;;;;;;;;;5006780;28;20032;-72
2022/12/05 06:47:10;;;;;;;36.90;22.70;;;;;;;;;;5009731;28;20046;-72
2022/12/05 06:49:36;;;;;;;31.23;23.30;;;;;;;;;;5004090;28;20088;-72
2022/12/05 06:52:04;;;;;;;40.35;23.92;;;;;;;;;;5007162;28;20400;-73
2022/12/05 06:54:30;;;;;;;44.55;26.48;;;;;;;;;;5002272;28;20084;-72
2022/12/05 06:56:56;;;;;;;43.55;21.85;;;;;;;;;;5008389;28;20088;-72
2022/12/05 06:59:21;;;;;;;37.60;21.05;;;;;;;;;;5020238;22;20132;-75
2022/12/05 07:01:47;;;;;;;39.13;21.80;;;;;;;;;;5022651;28;20490;-75
2022/12/05 07:04:16;;;;;;;44.30;24.08;;;;;;;;;;5019179;28;20033;-75
2022/12/05 07:06:44;;;;;;;39.10;21.67;;;;;;;;;;5019574;28;20112;-75
2022/12/05 07:09:13;;;;;;;40.75;21.63;;;;;;;;;;5010529;28;20037;-74
2022/12/05 07:11:39;;;;;;;41.75;23.25;;;;;;;;;;5001843;28;20038;-74
2022/12/05 07:14:05;;;;;;;35.33;22.00;;;;;;;;;;5002478;28;20034;-74
2022/12/05 07:16:31;;;;;;;25.30;20.77;;;;;;;;;;4999660;28;20495;-74
2022/12/05 07:18:59;;;;;;;37.60;24.10;;;;;;;;;;5013429;28;20026;-74
2022/12/05 07:21:25;;;;;;;26.70;20.45;;;;;;;;;;4999280;28;21992;-75
2022/12/05 07:23:51;;;;;;;39.78;21.02;;;;;;;;;;4982338;28;20037;-72
2022/12/05 07:26:19;;;;;;;35.15;21.50;;;;;;;;;;4996407;28;20044;-75
2022/12/05 07:28:47;;;;;;;38.05;21.98;;;;;;;;;;4997818;28;20614;-74
2022/12/05 07:31:15;;;;;;;28.90;19.75;;;;;;;;;;4998114;28;20034;-74
2022/12/05 07:33:43;;;;;;;31.33;18.95;;;;;;;;;;4997524;28;20034;-74
2022/12/05 07:36:13;;;;;;;35.15;20.73;;;;;;;;;;4997768;28;20121;-74
2022/12/05 07:38:42;;;;;;;28.10;19.65;;;;;;;;;;4996603;28;20040;-74
2022/12/05 07:41:15;;;;;;;28.08;18.90;;;;;;;;;;4996276;28;20061;-74
2022/12/05 07:43:41;;;;;;;34.40;21.25;;;;;;;;;;4981756;28;20045;-74
2022/12/05 07:46:10;;;;;;;34.45;19.65;;;;;;;;;;4994665;28;20057;-74
2022/12/05 07:48:39;;;;;;;27.63;18.83;;;;;;;;;;4980152;28;20037;-75
2022/12/05 07:51:05;;;;;;;25.33;19.42;;;;;;;;;;4999393;28;20044;-74
2022/12/05 07:53:33;;;;;;;34.88;19.35;;;;;;;;;;4996722;28;20030;-74
2022/12/05 07:55:59;;;;;;;37.33;22.85;;;;;;;;;;5007250;28;20407;-74
2022/12/05 07:58:27;;;;;;;27.23;18.85;;;;;;;;;;5023032;28;20393;-74
2022/12/05 08:00:53;;;;;;;27.90;18.10;;;;;;;;;;5007030;28;20475;-75
2022/12/05 08:03:19;;;;;;;30.00;18.80;;;;;;;;;;5007807;28;20051;-75
2022/12/05 08:05:45;;;;;;;26.83;18.98;;;;;;;;;;5010415;28;20034;-75
2022/12/05 08:08:10;;;;;;;29.67;19.42;;;;;;;;;;5023492;28;20040;-75
2022/12/05 08:10:43;;;;;;;30.95;18.73;;;;;;;;;;5015864;28;20041;-75
2022/12/05 08:13:14;;;;;;;24.05;20.40;;;;;;;;;;5007496;28;20025;-75
2022/12/05 08:15:40;;;;;;;35.28;20.48;;;;;;;;;;5010846;28;20092;-75
2022/12/05 08:18:06;;;;;;;33.05;19.42;;;;;;;;;;5012294;28;20129;-75
2022/12/05 08:20:37;;;;;;;28.80;18.80;;;;;;;;;;5018672;28;20099;-75
2022/12/05 08:23:03;;;;;;;33.08;21.35;;;;;;;;;;5015989;28;20040;-75
2022/12/05 08:25:32;;;;;;;24.58;17.42;;;;;;;;;;5016360;28;20041;-75
2022/12/05 08:28:03;;;;;;;22.83;17.83;;;;;;;;;;5010021;28;20400;-74
2022/12/05 08:30:28;;;;;;;30.45;20.80;;;;;;;;;;5010743;28;20038;-74
2022/12/05 08:32:59;;;;;;;26.58;19.27;;;;;;;;;;5008403;28;20040;-75
2022/12/05 08:35:30;;;;;;;22.55;19.67;;;;;;;;;;5012229;28;20553;-75
2022/12/05 08:37:58;;;;;;;25.45;17.45;;;;;;;;;;5014916;28;20049;-75
2022/12/05 08:40:27;;;;;;;28.92;18.63;;;;;;;;;;4985804;28;20030;-75
2022/12/05 08:42:55;;;;;;;27.77;17.20;;;;;;;;;;5020891;28;20056;-75
2022/12/05 08:45:23;;;;;;;24.27;16.80;;;;;;;;;;5003865;28;20034;-75
2022/12/05 08:47:53;;;;;;;27.10;18.20;;;;;;;;;;5008988;28;20029;-75
2022/12/05 08:50:21;;;;;;;22.08;13.80;;;;;;;;;;5013332;28;20369;-72
2022/12/05 08:52:50;;;;;;;30.23;17.65;;;;;;;;;;5013488;28;20029;-73
2022/12/05 08:55:18;;;;;;;25.90;17.52;;;;;;;;;;5021172;28;20119;-73
2022/12/05 08:57:48;;;;;;;24.85;15.98;;;;;;;;;;5007591;28;20026;-74
2022/12/05 09:00:14;;;;;;;21.30;16.02;;;;;;;;;;5020526;28;20044;-74
2022/12/05 09:02:40;;;;;;;23.88;18.42;;;;;;;;;;5012501;28;20433;-74
2022/12/05 09:05:09;;;;;;;22.33;16.15;;;;;;;;;;5008330;28;20038;-73
2022/12/05 09:07:41;;;;;;;21.13;15.23;;;;;;;;;;5009654;28;20037;-74
2022/12/05 09:10:07;;;;;;;22.67;17.35;;;;;;;;;;5032831;28;20042;-74
2022/12/05 09:12:39;;;;;;;26.33;17.40;;;;;;;;;;5011460;28;20376;-74
2022/12/05 09:15:08;;;;;;;26.85;18.20;;;;;;;;;;5014950;28;20034;-75
2022/12/05 09:17:36;;;;;;;20.27;15.82;;;;;;;;;;5004299;28;20041;-74
2022/12/05 09:20:03;;;;;;;26.15;18.05;;;;;;;;;;5012450;28;20030;-73
2022/12/05 09:22:29;;;;;;;24.17;15.05;;;;;;;;;;4998628;28;20040;-73
2022/12/05 09:24:55;;;;;;;22.50;16.95;;;;;;;;;;5038571;28;20124;-73
2022/12/05 09:27:20;;;;;;;22.88;18.02;;;;;;;;;;4998913;28;20299;-73
2022/12/05 09:29:49;;;;;;;19.55;15.77;;;;;;;;;;5005791;28;20041;-73
2022/12/05 09:32:17;;;;;;;21.52;19.00;;;;;;;;;;5009188;28;20518;-73
2022/12/05 09:34:48;;;;;;;28.35;17.63;;;;;;;;;;5008937;28;20042;-73
2022/12/05 09:37:17;;;;;;;22.60;16.42;;;;;;;;;;5005845;28;20073;-74
2022/12/05 09:39:43;;;;;;;23.95;20.42;;;;;;;;;;5004591;28;20038;-74
2022/12/05 09:42:09;;;;;;;19.35;15.43;;;;;;;;;;5010425;28;20451;-74
2022/12/05 09:44:40;;;;;;;21.27;15.75;;;;;;;;;;4996583;28;20040;-74
2022/12/05 09:47:12;;;;;;;19.85;16.55;;;;;;;;;;5023875;28;20030;-73
2022/12/05 09:49:42;;;;;;;28.73;18.00;;;;;;;;;;5008750;28;20022;-73
2022/12/05 09:52:12;;;;;;;22.58;18.80;;;;;;;;;;5008569;28;20044;-73
2022/12/05 09:54:42;;;;;;;28.73;20.08;;;;;;;;;;5009493;28;20041;-74
2022/12/05 09:57:09;;;;;;;22.58;16.90;;;;;;;;;;5012001;28;20368;-74
2022/12/05 09:59:37;;;;;;;23.63;17.35;;;;;;;;;;5008865;28;20043;-73
2022/12/05 10:02:21;;;;;;;28.20;19.10;;;;;;;;;;5009407;28;20042;-73
2022/12/05 10:04:46;;;;;;;27.77;16.70;;;;;;;;;;5009812;28;20045;-74
2022/12/05 10:07:27;;;;;;;24.45;17.55;;;;;;;;;;5028784;28;20033;-74
2022/12/05 10:09:55;;;;;;;32.05;15.80;;;;;;;;;;5000170;28;20484;-73
2022/12/05 10:12:44;;;;;;;23.35;15.55;;;;;;;;;;5007090;28;20045;-74
2022/12/05 10:15:10;;;;;;;24.65;17.25;;;;;;;;;;5022759;28;20459;-74
2022/12/05 10:17:40;;;;;;;26.40;16.52;;;;;;;;;;5009721;28;20038;-74
2022/12/05 10:20:23;;;;;;;22.48;16.77;;;;;;;;;;5007623;28;20045;-75
2022/12/05 10:23:10;;;;;;;21.02;15.95;;;;;;;;;;5010359;28;20492;-74
2022/12/05 10:25:39;;;;;;;26.25;16.67;;;;;;;;;;5009746;28;20053;-75
2022/12/05 10:28:28;;;;;;;26.63;19.02;;;;;;;;;;5026161;28;20473;-74
2022/12/05 10:30:55;;;;;;;20.25;17.80;;;;;;;;;;5011438;28;20037;-74
2022/12/05 10:33:29;;;;;;;23.45;18.08;;;;;;;;;;5038975;28;20515;-75
2022/12/05 10:35:55;;;;;;;23.92;17.67;;;;;;;;;;5013207;28;20045;-74
2022/12/05 10:38:28;;;;;;;24.75;17.33;;;;;;;;;;5016502;28;20026;-75
2022/12/05 10:41:00;;;;;;;22.08;16.88;;;;;;;;;;5015235;28;20034;-75
2022/12/05 10:43:27;;;;;;;19.67;16.00;;;;;;;;;;5021669;28;20041;-74
2022/12/05 10:45:56;;;;;;;24.10;17.67;;;;;;;;;;5012689;28;20033;-75
2022/12/05 10:48:26;;;;;;;25.17;18.67;;;;;;;;;;5011683;28;20026;-74
2022/12/05 10:50:58;;;;;;;18.27;15.40;;;;;;;;;;5010795;28;20038;-75
2022/12/05 10:53:44;;;;;;;24.38;19.00;;;;;;;;;;5025578;28;20034;-75
2022/12/05 10:56:29;;;;;;;25.95;18.20;;;;;;;;;;5026037;28;20052;-75
2022/12/05 10:58:56;;;;;;;27.45;17.90;;;;;;;;;;5014055;28;20045;-74
2022/12/05 11:01:24;;;;;;;27.77;20.17;;;;;;;;;;4993958;28;20033;-74
2022/12/05 11:03:56;;;;;;;20.92;16.25;;;;;;;;;;5008157;28;20380;-74
2022/12/05 11:06:23;;;;;;;18.15;15.57;;;;;;;;;;5013566;28;20450;-75
2022/12/05 11:08:53;;;;;;;24.17;17.52;;;;;;;;;;5008436;28;20026;-75
2022/12/05 11:11:27;;;;;;;29.15;19.50;;;;;;;;;;5014680;28;20037;-75
2022/12/05 11:13:57;;;;;;;26.65;18.67;;;;;;;;;;5009069;28;20383;-75
2022/12/05 11:16:27;;;;;;;24.90;17.40;;;;;;;;;;5013990;28;20041;-75
2022/12/05 11:18:53;;;;;;;28.30;18.92;;;;;;;;;;5011323;28;20034;-75
2022/12/05 11:21:19;;;;;;;24.38;17.40;;;;;;;;;;5005185;28;20050;-75
2022/12/05 11:23:50;;;;;;;24.58;18.80;;;;;;;;;;4994411;28;20037;-75
2022/12/05 11:26:16;;;;;;;22.08;17.77;;;;;;;;;;5003476;28;20033;-75
2022/12/05 11:28:42;;;;;;;26.00;18.35;;;;;;;;;;5000354;28;20065;-75
2022/12/05 11:31:13;;;;;;;24.48;18.20;;;;;;;;;;5004013;28;20164;-74
2022/12/05 11:33:39;;;;;;;20.98;14.98;;;;;;;;;;5015048;28;20045;-75
2022/12/05 11:36:09;;;;;;;22.63;17.45;;;;;;;;;;5019393;28;20034;-75
2022/12/05 11:38:40;;;;;;;38.20;20.23;;;;;;;;;;5000635;28;20029;-75
2022/12/05 11:41:11;;;;;;;22.73;17.67;;;;;;;;;;5000504;28;20037;-75
2022/12/05 11:43:40;;;;;;;;;;;;;;;;;;5011736;28;20033;-75
2022/12/05 11:46:24;;;;;;;25.92;15.75;;;;;;;;;;5006519;28;20338;-75
2022/12/05 11:49:00;;;;;;;22.58;17.30;;;;;;;;;;5010748;28;20025;-74
2022/12/05 11:51:26;;;;;;;24.40;16.70;;;;;;;;;;5017427;28;20025;-75
2022/12/05 11:54:08;;;;;;;21.13;16.42;;;;;;;;;;5020730;28;20034;-75
2022/12/05 11:56:40;;;;;;;20.83;15.30;;;;;;;;;;5000023;28;20052;-74
2022/12/05 11:59:27;;;;;;;22.92;15.35;;;;;;;;;;5016060;28;20025;-75
2022/12/05 12:02:12;;;;;;;26.10;17.08;;;;;;;;;;5011084;28;20033;-75
2022/12/05 12:04:41;;;;;;;21.05;16.50;;;;;;;;;;5019899;28;20030;-73
2022/12/05 12:07:27;;;;;;;22.35;16.38;;;;;;;;;;5013374;28;20037;-74
2022/12/05 12:10:01;;;;;;;19.08;16.85;;;;;;;;;;5009040;28;20038;-74
2022/12/05 12:12:38;;;;;;;36.75;20.45;;;;;;;;;;5013178;28;20026;-74
2022/12/05 12:15:23;;;;;;;22.17;18.02;;;;;;;;;;5017212;28;20037;-74
2022/12/05 12:18:09;;;;;;;23.25;16.42;;;;;;;;;;5027802;28;20348;-74
2022/12/05 12:20:55;;;;;;;26.38;18.23;;;;;;;;;;5014892;28;20034;-74
2022/12/05 12:23:24;;;;;;;26.15;18.20;;;;;;;;;;5001859;28;20026;-74
2022/12/05 12:25:54;;;;;;;;;;;;;;;;;;5011807;28;20046;-74
2022/12/05 12:28:41;;;;;;;22.25;16.17;;;;;;;;;;5011432;28;19913;-74
2022/12/05 12:31:25;;;;;;;24.38;16.13;;;;;;;;;;5018658;28;20026;-73
2022/12/05 12:34:03;;;;;;;21.05;15.07;;;;;;;;;;5011353;28;20036;-73
2022/12/05 12:36:31;;;;;;;26.67;16.02;;;;;;;;;;5010015;28;20033;-73
2022/12/05 12:39:16;;;;;;;22.88;16.60;;;;;;;;;;5010010;28;20034;-74
2022/12/05 12:41:42;;;;;;;24.40;17.73;;;;;;;;;;5009341;28;20038;-73
2022/12/05 12:44:07;;;;;;;19.30;16.15;;;;;;;;;;5009823;28;20060;-74
2022/12/05 12:46:54;;;;;;;25.38;17.00;;;;;;;;;;5017194;28;20037;-73
2022/12/05 12:49:28;;;;;;;22.92;17.50;;;;;;;;;;5009800;28;20045;-73
2022/12/05 12:52:02;;;;;;;21.73;14.50;;;;;;;;;;4990577;28;20340;-73
2022/12/05 12:54:50;;;;;;;28.98;15.27;;;;;;;;;;5009845;28;20702;-74
2022/12/05 12:57:23;;;;;;;19.00;15.43;;;;;;;;;;5002861;28;20041;-73
2022/12/05 13:00:12;;;;;;;21.60;14.52;;;;;;;;;;5021490;22;20049;-73
2022/12/05 13:02:40;;;;;;;24.15;16.00;;;;;;;;;;4993734;28;20041;-72
2022/12/05 13:05:14;;;;;;;24.42;17.08;;;;;;;;;;5021469;28;20502;-73
2022/12/05 13:07:46;;;;;;;22.40;16.58;;;;;;;;;;5017423;28;20021;-73
2022/12/05 13:10:32;;;;;;;20.58;15.70;;;;;;;;;;4999815;28;20035;-73
2022/12/05 13:13:01;;;;;;;21.88;16.00;;;;;;;;;;4997274;28;20033;-72
2022/12/05 13:15:32;;;;;;;22.75;16.30;;;;;;;;;;4993014;28;20041;-73
2022/12/05 13:17:58;;;;;;;22.38;16.35;;;;;;;;;;5002337;28;20408;-73
2022/12/05 13:20:26;;;;;;;19.95;15.60;;;;;;;;;;5000781;28;20037;-72
2022/12/05 13:22:54;;;;;;;26.80;17.98;;;;;;;;;;4996598;28;20034;-72
2022/12/05 13:25:22;;;;;;;21.13;14.95;;;;;;;;;;4996030;28;20037;-71
2022/12/05 13:27:57;;;;;;;20.30;17.10;;;;;;;;;;4989058;28;20030;-73
2022/12/05 13:30:26;;;;;;;22.20;16.03;;;;;;;;;;4989190;28;20038;-73
2022/12/05 13:33:01;;;;;;;21.80;14.82;;;;;;;;;;5000322;28;20046;-73
2022/12/05 13:44:11;;;;;;;24.23;14.43;;;;;;;;;;4996811;28;20042;-72
2022/12/05 13:46:38;;;;;;;19.80;15.07;;;;;;;;;;4990754;28;20031;-72
2022/12/05 13:49:15;;;;;;;19.15;13.93;;;;;;;;;;4977935;28;20031;-72
2022/12/05 13:51:43;;;;;;;20.05;14.52;;;;;;;;;;4990026;28;20377;-71
2022/12/05 13:54:15;;;;;;;23.30;15.85;;;;;;;;;;4995745;28;20408;-73
2022/12/05 13:56:49;;;;;;;21.13;15.73;;;;;;;;;;4984995;28;20406;-73
2022/12/05 13:59:33;;;;;;;18.67;13.38;;;;;;;;;;4978365;28;20045;-73
2022/12/05 14:02:02;;;;;;;18.77;13.10;;;;;;;;;;5003181;28;20503;-71
2022/12/05 14:04:49;;;;;;;17.25;11.20;;;;;;;;;;4993921;28;20041;-73
2022/12/05 14:07:37;;;;;;;15.07;12.02;;;;;;;;;;4997812;28;20041;-73
2022/12/05 14:10:06;;;;;;;19.35;12.98;;;;;;;;;;4991008;28;20038;-72
2022/12/05 14:12:52;;;;;;;18.40;14.98;;;;;;;;;;5007978;28;20030;-72
2022/12/05 14:15:24;;;;;;;13.85;11.10;;;;;;;;;;4995406;28;20030;-72
2022/12/05 14:18:09;;;;;;;10.45;8.95;;;;;;;;;;4989685;28;20034;-76
2022/12/05 14:20:37;;;;;;;15.95;10.90;;;;;;;;;;4994097;28;20025;-75
2022/12/05 14:23:06;;;;;;;11.07;9.70;;;;;;;;;;5000521;28;20022;-73
2022/12/05 14:25:44;;;;;;;13.35;11.02;;;;;;;;;;4993438;28;20437;-72
2022/12/05 14:28:31;;;;;;;14.88;8.13;;;;;;;;;;5011398;28;20030;-73
2022/12/05 14:31:16;;;;;;;16.38;11.10;;;;;;;;;;5000982;28;20033;-76
2022/12/05 14:33:42;;;;;;;13.05;9.73;;;;;;;;;;5012667;28;20485;-75
2022/12/05 14:36:15;;;;;;;13.73;9.38;;;;;;;;;;4992228;28;20034;-78
2022/12/05 14:38:41;;;;;;;;;;;;;;;;;;5004708;28;20037;-73
2022/12/05 14:41:23;;;;;;;16.08;12.80;;;;;;;;;;5000049;28;20343;-71
2022/12/05 14:43:53;;;;;;;14.32;12.00;;;;;;;;;;4991025;28;20034;-73
2022/12/05 14:46:30;;;;;;;14.57;11.32;;;;;;;;;;4997631;28;20034;-72
2022/12/05 14:48:56;;;;;;;15.98;12.68;;;;;;;;;;5000722;28;20492;-72
2022/12/05 14:51:32;;;;;;;17.42;12.02;;;;;;;;;;4987598;28;20022;-73